Observations for ALGHERO, Italy (LIEA)

LIEA 100250Z 33013KT 290V010 9999 SCT045 15/07 Q1021
LIEA 100220Z 32011KT 270V360 9999 SCT038 15/07 Q1021
LIEA 100150Z 31012G24KT 270V340 9999 SCT038 15/08 Q1021 
LIEA 100120Z 31014KT 270V350 CAVOK 15/08 Q1021  
LIEA 100050Z 31014KT 280V350 CAVOK 15/07 Q1020  
LIEA 100020Z 33016G28KT 290V360 9999 FEW045 15/07 Q1021 
LIEA 092350Z 35008G18KT 290V030 CAVOK 15/07 Q1021   
LIEA 092320Z 30011G21KT 270V340 9999 FEW035 15/07 Q1021 
LIEA 092250Z 30012G23KT 270V340 9999 SCT035 15/08 Q1021 
LIEA 092220Z 32009KT 290V360 CAVOK 15/08 Q1021  
LIEA 092150Z 31010KT 270V340 CAVOK 15/07 Q1021  
LIEA 092120Z 31008KT 200V360 CAVOK 16/07 Q1021  
LIEA 092050Z 31010KT 270V350 CAVOK 16/08 Q1021  
LIEA 092020Z 30012G22KT 270V350 CAVOK 16/09 Q1021   
LIEA 091950Z 29008KT 260V330 CAVOK 16/10 Q1021  
LIEA 091920Z 30008KT 260V360 CAVOK 16/09 Q1021  
LIEA 091850Z 29007KT 250V350 CAVOK 15/10 Q1021  
LIEA 091820Z 28010KT 250V320 CAVOK 16/10 Q1021  
LIEA 091750Z 29009KT 260V320 9999 FEW030 16/10 Q1021
LIEA 091720Z 29011KT 260V320 9999 FEW030 16/10 Q1021
LIEA 091650Z 28013KT 9999 FEW030 16/10 Q1021
LIEA 091620Z 29012G23KT 260V330 9999 SCT035 16/10 Q1021 
LIEA 091550Z 29009KT 250V350 9999 BKN035 16/10 Q1021
LIEA 091520Z 29008KT 9999 BKN035 16/11 Q1021
LIEA 091450Z 29011KT 250V310 9999 SCT030 16/10 Q1021
LIEA 091420Z 28012KT 250V320 9999 SCT030 16/10 Q1021
LIEA 091350Z 29010G21KT 250V330 9999 SCT032 17/11 Q1021 
LIEA 091320Z 28011KT 250V310 9999 SCT035 17/11 Q1021
LIEA 091250Z 28012KT 260V320 9999 FEW030 SCT036 17/11 Q1021 
LIEA 091220Z 28011KT 260V320 9999 SCT035 17/11 Q1021
LIEA 091150Z 29012KT 250V320 9999 SCT030 17/11 Q1022
LIEA 091120Z 30014KT 250V330 9999 SCT035 18/11 Q1022
LIEA 091050Z 29012KT 260V340 9999 SCT028 17/11 Q1023
LIEA 091020Z 29012KT 260V320 9999 SCT030 17/12 Q1023
LIEA 090950Z 29013G27KT 250V320 9999 SCT027 17/12 Q1023 
LIEA 090920Z 29010G22KT 230V350 9999 SCT027 17/12 Q1023 
LIEA 090850Z 29010KT 250V330 9999 FEW025 BKN030 16/12 Q1023 
LIEA 090820Z 29008KT 250V330 9999 BKN025 16/12 Q1022
LIEA 090750Z 28008KT 240V300 9999 SCT027 16/12 Q1022
LIEA 090720Z 28009KT 250V320 9999 SCT030 16/11 Q1022
LIEA 090650Z 28010KT 9999 SCT025 16/11 Q1022
LIEA 090620Z 28008KT 250V310 9999 SCT025 15/11 Q1022
LIEA 090550Z 28009KT 240V300 9999 FEW025 15/11 Q1022
LIEA 090520Z 28009KT 240V310 9999 SCT025 15/11 Q1022
LIEA 090450Z 27010KT 9999 FEW020 15/12 Q1022
LIEA 090420Z 27011KT 9999 SCT019 15/12 Q1022
LIEA 090350Z 27010KT 9999 SCT025 15/12 Q1022
LIEA 090320Z 28011KT 9999 SCT037 15/12 Q1022
LIEA 090220Z 29011KT 260V320 9999 SCT037 15/11 Q1023